RELACIONES PÚBLICAS

27/12/2017PERSPECTIVAS CLIMÁTICAS PARA ENERO – FEBRERO - MARZO 2017  Se adjunta el Informe de Perspectivas Climáticas para el trimestre Enero, Febrero y Marzo del 2017.http://meteorologia.gub.uy/ServCli/tendenciasClimaticas

Productos aeronáuticos

  • SIGMET
  • METAR / SPECI
  • TAF
  • AIREP
  • Aviso de aeródromo
  • Pronárea
  • Carta superficie
Fecha : 18/01/2017
FTUY 03 SUMU 18 11 30
SUMU TAF 181130Z 1812/1912 13015KT CAVOK TX28/1818Z TN19/1909Z BECMG 1901/1903 03010G20KT=
SULS TAF 181130Z 1812/1912 17015KT CAVOK TX28/1818Z TN19/1909Z BECMG 1901/1903 03010G20KT=
SUAA TAF 181130Z 1812/1912 13015KT CAVOK TX28/1818Z TN19/1909Z BECMG 1901/1903 03010G20KT=
SUCA TAF 181130Z 1812/1912 13015KT CAVOK TX28/1818Z TN19/1909Z BECMG 1901/1903 03010G20KT=
SUDU TAF 181130Z 1812/1912 15008KT 9999 BKN020 TX33/1818Z TN18/1909Z BECMG 1822/1900 07015KT BECMG 1905/1907 02012KT=
SUSO TAF 181130Z 1812/1912 VRB03KT CAVOK TX35/1818Z TN22/1909Z BECMG 1816/1818 16010KT=
SURV TAF 181130Z 1812/1912 17008KT 9999 BKN015 TX34/1818Z TN18/1909Z BECMG 1822/1900 09010KT CAVOK=

Predictor :


Mensajes TAF vigentes - Internacionales


Argentina
TAF SACO 180500Z 1806/1906 34003KT CAVOK TX37/1818Z TN16/1810Z BECMG 1811/1814 02010KT
TAF SABE 180500Z 1806/1906 16015KT CAVOK TX27/1819Z TN20/1809Z BECMG 1809/1811 11010KT
TAF SAME 180500Z 1806/1906 18010KT CAVOK TX33/1820Z TN22/1810Z BECMG 1811/1814 16015KT 9999 SCT040TCU
TAF SAAR 180500Z 1806/1906 17010KT CAVOK TX34/1819Z TN18/1809Z BECMG 1811/1813 09005KT
TAF SAEZ 180500Z 1806/1906 13005KT CAVOK TX32/1819Z TN18/1809Z BECMG 1812/1815 06010KT
Bolivia
TAF SLLP 180400Z 1806/1906 10006KT 4000E VCFG FEW003 FEW017CB SCT070 TX16/1820Z TN06/1810Z BECMG 1812/1814 15008KT 9999 NSW SCT015 TEMPO 1818/1822 06015KT 8000 VCSH SCT017 FEW020CB
Brasil
TAF SBFI 180215Z 1806/1906 20002KT CAVOK TN21/1808Z TX32/1818Z PROB40 1806/1810 2000 BR BKN003 BECMG 1810/1812 18004KT 9999 FEW015 BECMG 1 814/1816 17008KT SCT025 BECMG 1820/1822 16004KT CAVOK RMK PDW
TAF SBPA 180215Z 1806/1906 28005KT 9999 BKN025 TX28/1818Z TN22/1905Z PROB40 1806/1810 22005KT 8000 BKN008 BKN020 BECMG 1810/1812 22007KT BECMG 1 814/1816 16010KT BKN030 BECMG 1820/1822 12005KT CAVOK RMK PDW
TAF SBFL 180215Z 1806/1906 27006KT 9999 FEW030 TX31/1815Z TN23/1905Z BECMG 1815/1817 16012KT 9000 VCSH BKN025 FEW035TCU PROB40 TEMPO 1818/1821 4000 TSRA BKN012 FEW035CB BECMG 1821/1823 9999 NSW SCT025 RMK PDW
TAF SBBR 180200Z 1806/1906 08005KT 7000 SCT015 TN19/1807Z TX28/1815Z BECMG 1812/1814 10007KT 7000 BKN020 PROB30 1815/1818 TS BKN020 FEW022CB BE CMG 1818/1820 35005KT 7000 FEW035 BECMG 1900/1902 28005KT 7000 FEW030 RM K PDE
TAF SBRJ 180140Z 1806/1818 04005KT 9999 FEW020 TN27/1807Z TX36/1818Z BECMG 1806/1808 02005KT BECMG 1810/1812 06005KT BECMG 1814/1816 18010KT RMK PGW
TAF SBSP 180105Z 1806/1906 30005KT 9000 SCT020 TN21/1808Z TX25/1817Z BECMG 1808/1810 36010KT TEMPO 1813/1818 35015KT 3000 RA BR BKN013 PROB40 1818/1824 8000 TSRA BKN013 FEW035CB RMK PHN
TAF SBGR 180105Z 1806/1912 03005KT 9000 SCT025 TN21/1808Z TX25/1817Z BECMG 1808/1810 36010KT TEMPO 1813/1818 35015KT 4000 RA BR BKN025 PROB40 1818/1824 8000 TSRA BKN013 FEW035CB BECMG 1900/1902 28005KT FEW020 BECMG 1909/1911 30005KT RMK PHN
Colombia
TAF COR SKBO 180500Z 1806/1906 31007KT 7000 -RA BKN017 TEMPO 1809/1812 9000 -DZ SCT010 BKN070 TEMPO 1814/1818 BKN020 TEMPO 1819/1822 32014KT SCT020TCU TEMPO 1902/1906 BKN020 TX20/1818Z TN10/1811Z
Chile
TAF SCCI 180423Z 1806/1906 32012KT 9999 SCT040 TN05/1810Z TX14/1818Z BECMG 1808/1810 36010KT 9000 -RA SCT020 BKN035 TEMPO 1811/1815 03012KT 6000 RA SCT015 BKN023 BECMG 1816/1818 29020G30KT 9999 -SHRA BKN030 TEMPO 1816/1820 28025G35KT BECMG 1821/1823 25018G28KT SCT040 BECMG 1903/1905 27015KT
TAF SCEL 180403Z 1806/1906 20007KT CAVOK TX34/1819Z TN16/1810Z TEMPO 1806/1812 16006KT 7000 NSC BECMG 1815/1817 21010KT BECMG 1901/1903 20008KT
Ecuador
SEQM 180423Z 1806/1906 00000KT 4000 BR OVC006 FM181200 VRB03KT 9999 SCT030 SCT100 FM181800 36012KT 999 BKN030 SCT100 PROB30 TEMPO 1820/1823 SHRA FM190100 06003KT 9999 SCT010 BKN020 TX23/1819Z TN10/1811Z
EEUU
KLGA 180956Z 1810/1906 05012KT 6SM BR OVC004 TEMPO 1810/1813 3SM BR OVC004 FM181400 36009KT 6SM BR OVC006 FM181900 36010KT 6SM BR BKN010 OVC020 FM182200 36008KT P6SM BKN020 OVC035
KJFK 180956Z 1810/1912 02008KT 6SM BR OVC006 TEMPO 1810/1813 3SM BR OVC004 FM181400 35008KT 6SM BR OVC006 FM181800 33010KT 6SM BR BKN010 OVC020 FM182100 35009KT P6SM BKN020 OVC035 FM190700 33006KT P6SM SCT025 OVC050
KMIA 180857Z 1809/1906 00000KT P6SM FEW100 FM181400 14008KT P6SM FEW030 FM190000 00000KT P6SM SKC
KIAD 180844Z 1809/1912 31004KT 1SM BR BKN003 OVC050 FM181100 31007KT P6SM BKN040 FM181500 31015G22KT P6SM BKN035 FM182300 32008KT P6SM SCT050
KDCA 180844Z 1809/1906 30004KT 3SM BR FEW003 BKN015 FM181100 29004KT P6SM BKN040 FM181500 31010G19KT P6SM BKN035 FM182200 32009KT P6SM SCT045
España
TAF LEMD 180500Z 1806/1912 02007KT CAVOK TX06/1815Z TNM04/1806Z
TAF LEBL 180500Z 1806/1906 34010KT 9999 FEW040 TX11/1812Z TN00/1806Z PROB30 TEMPO 1806/1816 34015G25KT
Francia
TAF LFPO 180500Z 1806/1912 03010KT CAVOK TEMPO 1810/1818 03012G22KT
Inglaterra
TAF AMD EGLL 181050Z 1810/1912 09002KT CAVOK BECMG 1818/1821 7000 BECMG 1900/1903 4000 BR BECMG 1909/1912 9999 NSW
Panamá
TAF MPTO 180430Z 1806/1912 03004KT 9999 FEW020 TEMPO 1817/1821 02012KT
Paraguay
TAF SGAS 180457Z 1806/1906 17004KT CAVOK TX35/1819Z TN21/1809Z BECMG 1817/1820 21006KT 9999 SCT030 FM190000 14005KT CAVOK

* Datos extraidos del Text DataServer de la NOAA (NOAA TEXT DATA SERVER)

Instituto Uruguayo de Meteorología

Dr. Javier Barrios Amorín 1488 - CP 11200
1895 int 108

Montevideo - Uruguay